Lufkin, Texas
Current Conditions -  °F | °C
As of 7:32 AM on Wednesday 22 Oct 2014 (Local Time) from KLFK Reporting Station
Haze Haze  
Wind Chill: 59°   Ceiling: Unl
Heat Index: 59°   Visibility: 1.5mi
Dew Point: 55°   Wind: 3mph
Humidity: 87%   Direction: 360°N
Pressure: 30.1"   Gusts: NA
Location:  31.34°N, 94.72°W
Report Text: KLFK 221232Z AUTO 36003KT 1 1/2SM BR CLR 15/13 A3010 RMK AO2 T01500128
Loading
Personal Weather Stations






























Interactive Weather Map
Tropical Storm Tracking
New forecast layout! Learn more

10-Day Weather Forecast

Advertisements
Track Severe Weather on mobile